Time;durP1;ratioP1;P1;durP2;ratioP2;P2;SDS_P1;SDS_P2;PMS_P1;PMS_P2;Temp;Humidity;BMP_temperature;BMP_pressure;BME280_temperature;BME280_humidity;BME280_pressure;Samples;Min_cycle;Max_cycle;Signal;HPM_P1;HPM_P2
2022/01/19 00:01:06;;;;;;;6.28;2.80;;;-0.70;83.90;;;-2.13;79.55;97618.63;4070189;34;20316;-86
2022/01/19 00:03:35;;;;;;;6.97;2.88;;;-0.70;83.80;;;-2.13;79.55;97629.38;4070462;34;20276;-86
2022/01/19 00:06:03;;;;;;;4.72;2.90;;;-0.70;83.70;;;-2.14;80.04;97627.69;4069922;34;20559;-85
2022/01/19 00:08:32;;;;;;;4.85;3.10;;;-0.70;83.70;;;-2.17;79.73;97626.13;4070207;34;20285;-85
2022/01/19 00:11:01;;;;;;;6.57;3.25;;;-0.70;83.70;;;-2.13;79.56;97626.69;4070384;34;20323;-85
2022/01/19 00:13:30;;;;;;;5.03;2.83;;;-0.70;83.80;;;-2.16;79.53;97626.00;4070258;34;20015;-85
2022/01/19 00:15:59;;;;;;;5.35;3.00;;;-0.70;83.90;;;-2.14;79.95;97625.00;4115971;34;20327;-85
2022/01/19 00:18:29;;;;;;;5.40;3.28;;;-0.70;83.70;;;-2.13;79.83;97624.00;4070676;34;20019;-86
2022/01/19 00:20:58;;;;;;;4.40;2.97;;;-0.70;83.80;;;-2.17;79.65;97608.22;4070204;34;20012;-85
2022/01/19 00:23:27;;;;;;;6.15;3.08;;;-0.70;83.90;;;-2.14;79.70;97612.41;4092522;34;20357;-86
2022/01/19 00:25:56;;;;;;;4.63;2.88;;;-0.70;83.80;;;-2.14;79.62;97628.50;4115985;34;20019;-86
2022/01/19 00:28:25;;;;;;;3.53;2.53;;;-0.70;83.80;;;-2.14;79.44;97622.31;4070323;34;20584;-86
2022/01/19 00:30:54;;;;;;;3.65;2.35;;;-0.70;83.80;;;-2.15;79.42;97626.81;4094189;34;20677;-86
2022/01/19 00:33:24;;;;;;;5.45;3.70;;;-0.70;83.80;;;-2.14;79.58;97644.59;4072641;34;20316;-86
2022/01/19 00:35:58;;;;;;;4.93;2.83;;;-0.70;83.80;;;-2.14;79.38;97641.09;4072233;34;20318;-85
2022/01/19 00:38:28;;;;;;;6.85;2.78;;;-0.70;84.60;;;-2.14;79.51;97636.56;4094111;34;20019;-86
2022/01/19 00:41:07;;;;;;;5.43;3.05;;;-0.70;83.80;;;-2.13;79.71;97645.47;4073833;34;20280;-86
2022/01/19 00:43:38;;;;;;;6.28;2.83;;;-0.70;83.80;;;-2.14;79.88;97649.16;4092590;34;20300;-86
2022/01/19 00:46:11;;;;;;;4.95;3.10;;;-0.70;83.90;;;-2.17;79.65;97645.78;4067376;34;20016;-85
2022/01/19 00:48:44;;;;;;;6.07;3.20;;;-0.70;83.90;;;-2.14;79.75;97651.84;4068302;34;20031;-85
2022/01/19 00:51:21;;;;;;;6.30;3.13;;;-0.70;83.90;;;-2.14;79.51;97654.50;4068088;34;20284;-86
2022/01/19 00:53:55;;;;;;;6.57;3.15;;;-0.70;83.90;;;-2.15;79.63;97645.59;4068258;34;20026;-86
2022/01/19 00:56:27;;;;;;;5.45;3.20;;;-0.70;83.90;;;-2.14;79.85;97647.28;4091805;34;20015;-85
2022/01/19 00:59:02;;;;;;;4.22;2.65;;;-0.70;83.80;;;-2.15;79.76;97653.66;4091724;34;20049;-86
2022/01/19 01:01:36;;;;;;;6.55;3.00;;;-0.70;83.90;;;-2.13;79.64;97650.84;4092545;34;19999;-86
2022/01/19 01:04:11;;;;;;;4.20;2.58;;;-0.70;83.90;;;-2.14;79.42;97646.47;4090991;34;20282;-86
2022/01/19 01:06:42;;;;;;;5.13;2.92;;;-0.70;83.90;;;-2.15;79.82;97648.28;4067951;34;20015;-86
2022/01/19 01:09:11;;;;;;;5.55;2.92;;;-0.70;83.90;;;-2.17;79.47;97645.78;4068495;34;20107;-86
2022/01/19 01:11:47;;;;;;;5.03;3.38;;;-0.70;84.70;;;-2.15;79.30;97653.66;4068765;34;20222;-86
2022/01/19 01:18:17;;;;;;;4.53;3.25;;;-0.70;83.90;;;-2.15;79.55;97653.66;4090443;34;20139;-86
2022/01/19 01:20:06;;;;;;;5.38;2.80;;;-0.70;83.80;;;-2.14;79.56;97651.84;4089191;34;20330;-86
2022/01/19 01:22:37;;;;;;;5.53;3.00;;;-0.70;83.90;;;-2.16;79.85;97644.78;4088877;34;20023;-86
2022/01/19 01:25:07;;;;;;;4.40;2.90;;;-0.70;83.90;;;-2.15;79.68;97645.59;4111295;34;20295;-86
2022/01/19 01:27:36;;;;;;;6.28;3.53;;;-0.70;83.90;;;-2.16;79.57;97630.50;4088407;34;20566;-86
2022/01/19 01:30:08;;;;;;;6.07;3.53;;;-0.70;83.90;;;-2.14;79.58;97633.06;4088350;34;20333;-86
2022/01/19 01:33:01;;;;;;;5.18;3.17;;;-0.70;83.90;;;-2.16;80.03;97628.69;4088451;34;20313;-86
2022/01/19 01:35:30;;;;;;;5.95;3.30;;;-0.70;83.90;;;-2.17;79.82;97624.31;4111142;34;20319;-86
2022/01/19 01:38:00;;;;;;;3.90;2.38;;;-0.70;83.90;;;-2.17;79.85;97624.31;4087463;34;20014;-87
2022/01/19 01:40:32;;;;;;;5.47;3.10;;;-0.70;83.90;;;-2.16;79.53;97626.00;4083544;34;20635;-86
2022/01/19 01:43:04;;;;;;;4.75;3.17;;;-0.70;83.90;;;-2.16;80.01;97630.50;4092284;34;20311;-86
2022/01/19 01:45:35;;;;;;;5.72;3.10;;;-0.70;83.90;;;-2.17;79.33;97612.72;4107992;34;20062;-86
2022/01/19 01:48:09;;;;;;;6.70;4.07;;;-0.70;83.90;;;-2.15;80.00;97629.50;4070618;34;20290;-86
2022/01/19 01:53:38;;;;;;;5.20;3.35;;;-0.70;83.90;;;-2.17;79.77;97628.81;4115351;34;20319;-87
2022/01/19 01:56:10;;;;;;;6.70;3.17;;;-0.70;83.90;;;-2.17;79.79;97629.69;4070180;34;20605;-87
2022/01/19 01:58:41;;;;;;;5.50;2.97;;;-0.70;83.90;;;-2.17;79.97;97640.41;4096556;34;20223;-86
2022/01/19 02:01:28;;;;;;;5.50;3.08;;;-0.70;83.80;;;-2.18;79.46;97640.53;4096286;34;20271;-86
2022/01/19 02:03:57;;;;;;;4.43;3.05;;;-0.70;83.80;;;-2.18;79.44;97636.03;4097051;34;20281;-87
2022/01/19 02:06:32;;;;;;;5.60;3.13;;;-0.70;84.00;;;-2.17;80.09;97651.13;4073921;34;20342;-87
2022/01/19 02:09:19;;;;;;;5.32;2.97;;;-0.70;84.70;;;-2.19;79.90;97646.91;4073724;34;20652;-87
2022/01/19 02:23:14;;;;;;;6.93;3.25;;;-0.70;84.00;;;-2.17;79.78;97650.28;4095513;34;20030;-87
2022/01/19 02:25:45;;;;;;;5.85;3.58;;;-0.70;84.00;;;-2.17;79.43;97650.28;4072556;34;20679;-87
2022/01/19 02:31:34;;;;;;;9.07;3.83;;;-0.70;84.00;;;-2.17;80.08;97650.28;4095364;34;20270;-87
2022/01/19 02:40:10;;;;;;;6.32;3.45;;;-0.70;84.00;;;-2.17;79.85;97650.28;4016021;34;20312;-87
2022/01/19 02:40:11;;;;;;;6.97;3.65;;;-0.70;84.00;;;-2.19;79.84;97628.97;4065982;34;20217;-87
2022/01/19 02:42:53;;;;;;;5.88;2.72;;;-0.70;84.00;;;-2.20;79.73;97632.66;4043752;34;20023;-87
2022/01/19 02:50:55;;;;;;;5.05;3.13;;;-0.70;84.00;;;-2.19;80.17;97620.94;4067750;34;20327;-87
2022/01/19 02:53:25;;;;;;;6.75;3.40;;;-0.70;84.00;;;-2.18;79.68;97632.50;4045176;34;20008;-87
2022/01/19 02:55:54;;;;;;;5.05;3.35;;;-0.70;84.80;;;-2.18;80.18;97627.97;4069389;34;20309;-87
2022/01/19 02:58:24;;;;;;;7.15;3.80;;;-0.70;84.00;;;-2.22;80.03;97634.66;4068587;34;20645;-87
2022/01/19 03:09:14;;;;;;;6.13;2.97;;;-0.70;84.10;;;-2.20;79.98;97646.06;4044013;34;20278;-86
2022/01/19 03:11:43;;;;;;;5.82;3.50;;;-0.70;84.00;;;-2.20;79.82;97643.38;4065168;34;20307;-86
2022/01/19 03:14:12;;;;;;;5.25;3.15;;;-0.70;84.00;;;-2.21;79.80;97646.22;4042884;34;20031;-87
2022/01/19 03:16:42;;;;;;;5.60;3.33;;;-0.70;84.00;;;-2.20;79.54;97648.75;4064715;34;20027;-87
2022/01/19 03:19:11;;;;;;;5.32;3.60;;;-0.70;84.10;;;-2.20;79.76;97640.69;4043075;34;20235;-87
2022/01/19 03:21:41;;;;;;;5.60;3.28;;;-0.70;84.00;;;-2.22;79.52;97633.81;4042997;34;20027;-87
2022/01/19 03:24:11;;;;;;;4.80;3.63;;;-0.70;84.00;;;-2.20;79.98;97648.75;4043574;34;20015;-86
2022/01/19 03:26:42;;;;;;;6.07;3.22;;;-0.70;84.00;;;-2.24;80.27;97644.69;4043430;34;20541;-87
2022/01/19 03:29:18;;;;;;;5.95;3.60;;;-0.70;84.10;;;-2.20;80.24;97648.75;4066055;34;20370;-87
2022/01/19 03:31:47;;;;;;;5.03;3.42;;;-0.70;84.00;;;-2.21;79.82;97644.38;4045547;34;20322;-87
2022/01/19 03:34:17;;;;;;;5.30;3.58;;;-0.70;84.00;;;-2.23;80.02;97643.69;4045985;34;20016;-87
2022/01/19 03:36:49;;;;;;;7.13;3.80;;;-0.70;84.10;;;-2.23;79.97;97642.88;4090189;34;20027;-88
2022/01/19 03:39:18;;;;;;;5.32;3.00;;;-0.70;84.10;;;-2.23;79.85;97641.00;4068112;34;20027;-88
2022/01/19 03:41:48;;;;;;;5.90;3.72;;;-0.70;84.00;;;-2.21;80.04;97654.28;4045928;34;20016;-86
2022/01/19 03:44:18;;;;;;;4.72;3.10;;;-0.70;84.10;;;-2.22;79.96;97649.91;4066487;34;20020;-87
2022/01/19 03:46:55;;;;;;;5.53;3.50;;;-0.70;84.20;;;-2.21;80.41;97648.91;4041766;34;20016;-87
2022/01/19 03:49:25;;;;;;;6.10;3.80;;;-0.70;84.00;;;-2.21;80.02;97643.56;4041906;34;20332;-88
2022/01/19 03:51:59;;;;;;;6.05;3.67;;;-0.70;84.10;;;-2.20;79.79;97646.06;4042570;34;20201;-87
2022/01/19 03:54:28;;;;;;;7.32;3.45;;;-0.70;84.10;;;-2.25;80.00;97632.25;4042650;34;20027;-87
2022/01/19 03:56:58;;;;;;;7.88;3.95;;;-0.70;84.00;;;-2.21;79.95;97636.34;4063692;34;20020;-87
2022/01/19 03:59:34;;;;;;;5.55;3.50;;;-0.70;84.10;;;-2.23;79.99;97629.44;4064181;34;20251;-87
2022/01/19 04:02:03;;;;;;;6.72;4.00;;;-0.70;84.10;;;-2.21;79.91;97635.50;4064565;34;19995;-85
2022/01/19 04:05:42;;;;;;;5.85;3.67;;;-0.70;84.10;;;-2.22;80.09;97642.69;4041504;34;20286;-87
2022/01/19 04:08:11;;;;;;;5.75;3.92;;;-0.70;84.20;;;-2.22;79.84;97641.88;4063040;34;20312;-87
2022/01/19 04:10:40;;;;;;;5.93;3.72;;;-0.70;84.20;;;-2.22;79.94;97642.69;4063881;34;20467;-88
2022/01/19 04:13:23;;;;;;;7.55;3.85;;;-0.70;84.10;;;-2.22;80.18;97637.31;4041428;34;20329;-87
2022/01/19 04:15:53;;;;;;;5.13;3.23;;;-0.70;84.10;;;-2.21;79.96;97643.56;4041420;34;20295;-86
2022/01/19 04:18:21;;;;;;;6.20;3.65;;;-0.70;84.20;;;-2.22;79.69;97647.22;4063262;34;20480;-86
2022/01/19 04:20:52;;;;;;;4.50;2.95;;;-0.70;84.00;;;-2.22;80.10;97634.66;4040896;34;20314;-86
2022/01/19 04:23:25;;;;;;;5.20;3.70;;;-0.70;84.10;;;-2.24;80.16;97628.59;4039231;34;20024;-85
2022/01/19 04:25:54;;;;;;;5.85;3.58;;;-0.70;84.00;;;-2.22;79.90;97631.97;4039329;34;20024;-86
2022/01/19 04:28:24;;;;;;;5.65;2.97;;;-0.70;84.00;;;-2.23;79.93;97635.63;4034696;34;20028;-87
2022/01/19 04:30:54;;;;;;;6.80;3.50;;;-0.70;84.20;;;-2.22;79.61;97629.28;4033188;34;20267;-85
2022/01/19 04:33:26;;;;;;;6.45;3.67;;;-0.80;84.00;;;-2.22;79.85;97620.41;4029679;34;20214;-86
2022/01/19 04:36:08;;;;;;;4.53;2.47;;;-0.70;84.20;;;-2.24;80.13;97612.50;4027762;34;20310;-86
2022/01/19 05:04:10;;;;;;;4.53;2.92;;;-0.80;84.10;;;-2.26;79.70;97579.59;4030137;34;20320;-86
2022/01/19 05:06:50;;;;;;;5.93;3.20;;;-0.80;84.10;;;-2.26;79.81;97579.59;4030434;34;20302;-87
2022/01/19 05:09:38;;;;;;;5.50;3.22;;;-0.80;84.10;;;-2.25;80.07;97592.03;4030728;34;20296;-86
2022/01/19 05:15:01;;;;;;;7.15;4.30;;;-0.80;84.00;;;-2.26;79.94;97594.88;4011061;34;20309;-86
2022/01/19 05:17:31;;;;;;;8.27;4.20;;;-0.80;84.00;;;-2.25;79.88;97605.44;4035227;34;20027;-87
2022/01/19 05:20:00;;;;;;;8.55;3.75;;;-0.80;84.10;;;-2.29;80.03;97592.50;4036776;34;20289;-86
2022/01/19 05:22:29;;;;;;;8.55;4.45;;;-0.80;84.20;;;-2.26;80.18;97595.69;4033559;34;20287;-86
2022/01/19 05:25:01;;;;;;;10.18;4.78;;;-0.80;84.20;;;-2.28;79.96;97600.41;4034255;34;20296;-85
2022/01/19 05:27:46;;;;;;;7.32;4.25;;;-0.80;84.20;;;-2.27;80.11;97602.09;4032720;34;20269;-87
2022/01/19 05:30:17;;;;;;;7.93;4.32;;;-0.80;84.30;;;-2.27;80.30;97595.88;4036979;34;20300;-86
2022/01/19 05:32:48;;;;;;;9.15;4.57;;;-0.80;84.20;;;-2.27;79.89;97599.41;4039529;34;20224;-86
2022/01/19 05:35:17;;;;;;;9.63;4.35;;;-0.80;84.20;;;-2.27;80.27;97595.88;4036530;34;20232;-86
2022/01/19 05:37:51;;;;;;;9.05;4.63;;;-0.80;84.20;;;-2.27;80.02;97595.88;4060761;34;20016;-86
2022/01/19 05:40:38;;;;;;;10.10;4.82;;;-0.80;84.40;;;-2.27;80.14;97596.72;4039348;34;20020;-86
2022/01/19 05:43:07;;;;;;;7.35;4.55;;;-0.80;84.30;;;-2.29;80.10;97588.00;4039223;34;20337;-86
2022/01/19 05:45:36;;;;;;;7.78;4.13;;;-0.80;84.20;;;-2.32;80.06;97577.56;4039366;34;20537;-85
2022/01/19 05:48:15;;;;;;;10.98;5.32;;;-0.80;84.20;;;-2.29;80.15;97588.00;4039038;34;20224;-86
2022/01/19 05:50:48;;;;;;;9.45;5.38;;;-0.80;84.30;;;-2.28;80.41;97588.81;4039471;34;20024;-86
2022/01/19 05:53:19;;;;;;;10.57;4.72;;;-0.80;84.20;;;-2.31;79.92;97590.81;4039282;34;20300;-87
2022/01/19 05:55:48;;;;;;;11.15;5.53;;;-0.80;84.30;;;-2.30;80.22;97589.00;4039217;34;20301;-86
2022/01/19 05:58:17;;;;;;;11.23;5.57;;;-0.80;84.20;;;-2.29;80.25;97593.34;4060399;34;20547;-86
2022/01/19 06:00:52;;;;;;;13.40;6.00;;;-0.80;84.20;;;-2.31;80.19;97590.81;4040700;34;20028;-86
2022/01/19 06:03:22;;;;;;;13.60;6.82;;;-0.80;84.30;;;-2.29;80.32;97604.09;4038502;34;20174;-86
2022/01/19 06:06:03;;;;;;;16.10;7.57;;;-0.80;84.30;;;-2.28;80.10;97597.72;4060871;34;20641;-87
2022/01/19 06:08:42;;;;;;;21.58;9.95;;;-0.80;84.20;;;-2.28;79.76;97603.09;4038478;34;20601;-86
2022/01/19 06:11:12;;;;;;;19.15;8.95;;;-0.80;84.30;;;-2.28;80.04;97605.78;4038715;34;20020;-86
2022/01/19 06:13:42;;;;;;;20.70;9.75;;;-0.80;84.30;;;-2.25;79.81;97599.25;4038857;34;20151;-86
2022/01/19 06:16:11;;;;;;;22.02;10.68;;;-0.80;84.20;;;-2.22;80.13;97609.69;4037765;34;20028;-87
2022/01/19 06:18:42;;;;;;;22.38;11.20;;;-0.80;84.10;;;-2.21;79.87;97601.47;4080147;34;20011;-86
2022/01/19 06:21:12;;;;;;;29.17;12.98;;;-0.70;84.10;;;-2.17;79.84;97602.84;4067191;34;20630;-86
2022/01/19 06:23:45;;;;;;;26.27;13.10;;;-0.70;83.90;;;-2.14;79.58;97608.91;4067772;34;20350;-86
2022/01/19 06:26:16;;;;;;;27.95;14.32;;;-0.70;83.70;;;-2.11;79.53;97613.94;4067040;34;20032;-86
2022/01/19 06:28:45;;;;;;;30.90;15.13;;;-0.70;83.70;;;-2.08;79.62;97605.59;4089529;34;20311;-86
2022/01/19 06:31:14;;;;;;;33.80;16.33;;;-0.60;83.60;;;-2.05;79.75;97599.91;4067424;34;20008;-86
2022/01/19 06:33:44;;;;;;;33.10;16.60;;;-0.60;83.70;;;-2.05;79.27;97597.22;4092297;34;20023;-86
2022/01/19 06:36:15;;;;;;;38.28;17.45;;;-0.60;83.40;;;-2.01;78.98;97602.13;4092037;34;20331;-86
2022/01/19 06:38:54;;;;;;;33.20;16.98;;;-0.50;84.20;;;-1.97;78.91;97617.91;4069331;34;20016;-86
2022/01/19 06:41:38;;;;;;;32.78;16.95;;;-0.60;83.20;;;-1.95;79.03;97610.56;4069264;34;20654;-87
2022/01/19 06:44:08;;;;;;;39.85;18.73;;;-0.50;83.20;;;-1.93;78.74;97616.59;4067448;34;20320;-86
2022/01/19 06:46:37;;;;;;;36.22;18.48;;;-0.50;83.10;;;-1.94;78.93;97607.72;4067508;34;20011;-86
2022/01/19 06:49:07;;;;;;;36.45;20.20;;;-0.40;83.00;;;-1.89;79.07;97613.47;4067431;34;20023;-86
2022/01/19 06:51:37;;;;;;;35.78;18.60;;;-0.40;82.80;;;-1.87;78.69;97608.75;4068051;34;20575;-87
2022/01/19 06:54:08;;;;;;;38.58;19.50;;;-0.40;82.80;;;-1.88;78.66;97601.72;4067205;34;20212;-86
2022/01/19 06:56:38;;;;;;;38.97;19.13;;;-0.40;82.70;;;-1.84;78.58;97602.25;4066696;34;20330;-86
2022/01/19 06:59:25;;;;;;;37.72;19.27;;;-0.40;82.70;;;-1.82;78.62;97612.81;4066460;34;20313;-86
2022/01/19 07:02:07;;;;;;;38.38;18.88;;;-0.40;82.80;;;-1.79;78.72;97621.41;4070515;34;20287;-86
2022/01/19 07:05:04;;;;;;;38.13;19.98;;;-0.30;82.80;;;-1.78;78.40;97622.25;4087165;34;20018;-87
2022/01/19 07:07:42;;;;;;;41.70;21.92;;;-0.30;82.60;;;-1.73;78.49;97633.34;4091127;34;20027;-87
2022/01/19 07:10:11;;;;;;;46.40;21.10;;;-0.30;82.60;;;-1.71;78.40;97634.91;4091963;34;20043;-87
2022/01/19 07:12:40;;;;;;;50.90;25.17;;;-0.30;82.40;;;-1.69;78.12;97642.78;4070212;34;20654;-86
2022/01/19 07:15:11;;;;;;;47.75;23.67;;;-0.20;82.30;;;-1.67;78.19;97643.47;4071111;34;20015;-86
2022/01/19 07:17:40;;;;;;;48.95;24.38;;;-0.20;82.30;;;-1.67;78.45;97651.53;4071705;34;20024;-86
2022/01/19 07:20:12;;;;;;;46.22;21.90;;;-0.20;82.10;;;-1.64;77.98;97645.00;4070664;34;20020;-86
2022/01/19 07:22:43;;;;;;;49.70;24.70;;;-0.20;82.10;;;-1.62;78.02;97651.91;4069997;34;20015;-86
2022/01/19 07:25:13;;;;;;;51.20;24.80;;;-0.20;82.00;;;-1.59;77.96;97656.13;4069648;34;20193;-86
2022/01/19 07:27:42;;;;;;;45.58;24.58;;;-0.10;81.90;;;-1.56;78.01;97663.88;4066904;34;20358;-87
2022/01/19 07:30:13;;;;;;;50.17;25.15;;;-0.10;81.90;;;-1.54;78.19;97656.47;4067861;34;20058;-86
2022/01/19 07:32:43;;;;;;;61.72;29.02;;;-0.10;82.00;;;-1.51;77.71;97660.69;4061275;33;20030;-87
2022/01/19 07:35:16;;;;;;;94.82;38.97;;;-0.10;81.90;;;-1.49;77.76;97647.97;4083690;34;20303;-87
2022/01/19 07:37:45;;;;;;;83.45;35.92;;;0.00;81.80;;;-1.48;77.72;97646.94;4083137;34;20315;-86
2022/01/19 07:40:15;;;;;;;73.85;34.30;;;0.00;81.70;;;-1.46;77.79;97648.47;4084085;34;20027;-87
2022/01/19 07:42:44;;;;;;;80.68;35.40;;;0.00;81.70;;;-1.44;77.71;97638.44;4061025;34;20019;-87
2022/01/19 07:45:32;;;;;;;86.00;36.72;;;0.00;81.60;;;-1.40;77.74;97637.09;4082009;34;20015;-88
2022/01/19 07:48:32;;;;;;;80.82;37.03;;;0.10;81.70;;;-1.40;77.59;97630.88;4080903;34;20311;-88
2022/01/19 07:51:13;;;;;;;85.18;38.90;;;0.10;81.70;;;-1.39;77.71;97629.88;4058644;34;20296;-87
2022/01/19 07:53:58;;;;;;;80.63;37.00;;;0.10;81.60;;;-1.37;77.60;97641.31;4057092;34;20040;-88
2022/01/19 07:56:47;;;;;;;83.83;36.47;;;0.10;81.50;;;-1.34;77.60;97646.34;4079397;34;20329;-87
2022/01/19 07:59:45;;;;;;;90.40;39.60;;;0.10;81.60;;;-1.30;77.63;97638.84;4072928;34;20012;-87
2022/01/19 08:02:16;;;;;;;89.47;38.78;;;0.10;81.50;;;-1.28;77.07;97629.59;4058746;34;19996;-87
2022/01/19 08:05:08;;;;;;;88.30;39.05;;;0.10;81.40;;;-1.26;77.16;97638.34;4079647;34;20019;-88
2022/01/19 08:07:39;;;;;;;88.55;38.75;;;0.20;81.30;;;-1.20;77.01;97636.00;4079739;34;20282;-89
2022/01/19 08:10:14;;;;;;;91.45;38.15;;;0.20;81.20;;;-1.15;77.08;97641.75;4060035;34;20290;-86
2022/01/19 08:12:44;;;;;;;89.97;39.47;;;0.20;81.10;;;-1.12;77.11;97641.44;4059974;34;20030;-88
2022/01/19 08:15:13;;;;;;;91.55;39.60;;;0.30;81.10;;;-1.07;77.07;97652.53;4082874;34;20026;-88
2022/01/19 08:17:42;;;;;;;92.55;40.05;;;0.30;81.00;;;-1.05;76.68;97639.78;4060795;34;20008;-88
2022/01/19 08:20:13;;;;;;;87.53;40.63;;;0.40;80.90;;;-1.00;76.99;97636.59;4083550;34;20087;-88
2022/01/19 08:22:49;;;;;;;86.65;38.50;;;0.40;80.80;;;-0.98;76.77;97630.09;4087360;33;20062;-89
2022/01/19 08:25:24;;;;;;;81.15;37.42;;;0.40;80.60;;;-0.91;76.64;97634.81;4067688;34;20012;-88
2022/01/19 08:27:53;;;;;;;86.68;39.38;;;0.40;80.60;;;-0.97;76.66;97636.28;4067299;34;20020;-88
2022/01/19 08:30:30;;;;;;;91.13;40.38;;;0.50;80.70;;;-0.96;76.85;97625.38;4064050;34;20301;-87
2022/01/19 08:33:03;;;;;;;87.43;39.10;;;0.50;80.60;;;-0.99;76.66;97617.66;4066022;34;20019;-86
2022/01/19 08:35:42;;;;;;;87.82;39.20;;;0.50;80.80;;;-0.96;76.91;97614.63;4066762;34;20023;-89
2022/01/19 08:38:33;;;;;;;80.32;37.28;;;0.50;80.80;;;-0.91;76.72;97607.91;4089817;34;20323;-86
2022/01/19 08:41:12;;;;;;;86.47;35.20;;;0.50;80.80;;;-0.88;76.92;97604.91;4067627;34;20298;-89
2022/01/19 08:43:45;;;;;;;72.30;34.85;;;0.50;80.70;;;-0.87;76.66;97593.97;4089977;34;20003;-88
2022/01/19 08:46:15;;;;;;;79.40;34.88;;;0.60;80.70;;;-0.82;76.47;97604.25;4089402;34;20314;-88
2022/01/19 08:49:06;;;;;;;73.63;34.47;;;0.60;80.60;;;-0.80;76.66;97604.94;4084508;34;20296;-87
2022/01/19 08:51:50;;;;;;;70.18;34.20;;;0.60;80.50;;;-0.76;76.53;97617.06;4064770;34;20319;-86
2022/01/19 08:54:24;;;;;;;76.35;36.92;;;0.60;80.60;;;-0.74;76.22;97601.59;4067128;34;20003;-87
2022/01/19 08:57:04;;;;;;;73.30;32.67;;;0.60;80.50;;;-0.73;76.64;97600.59;4061671;34;20295;-87
2022/01/19 08:59:33;;;;;;;73.18;34.20;;;0.70;80.40;;;-0.71;76.31;97598.56;4063004;34;20330;-89
2022/01/19 09:02:02;;;;;;;69.07;33.25;;;0.70;80.40;;;-0.72;76.51;97602.28;4086018;34;20306;-88
2022/01/19 09:04:31;;;;;;;69.95;30.17;;;0.60;80.30;;;-0.72;76.37;97604.97;4065202;34;20296;-87
2022/01/19 09:07:00;;;;;;;65.45;31.15;;;0.70;80.30;;;-0.69;76.44;97596.56;4042645;34;20302;-87
2022/01/19 09:09:31;;;;;;;64.00;29.63;;;0.70;80.30;;;-0.70;76.31;97600.25;4043310;34;20327;-87
2022/01/19 09:12:00;;;;;;;61.38;29.20;;;0.70;80.30;;;-0.68;76.31;97595.53;4042614;34;19996;-87
2022/01/19 09:14:30;;;;;;;65.13;32.40;;;0.70;80.20;;;-0.69;76.14;97577.72;4064522;34;20299;-87
2022/01/19 09:17:01;;;;;;;58.60;29.33;;;0.70;80.10;;;-0.70;76.54;97562.59;4064233;34;20296;-87
2022/01/19 09:19:30;;;;;;;61.67;28.50;;;0.70;80.00;;;-0.68;75.98;97567.81;4063867;34;20020;-87
2022/01/19 09:22:02;;;;;;;64.82;28.25;;;0.80;80.00;;;-0.67;75.82;97564.13;4042783;34;20016;-88
2022/01/19 09:24:33;;;;;;;58.55;27.77;;;0.70;79.90;;;-0.65;76.03;97562.13;4087556;34;20328;-87
2022/01/19 09:27:02;;;;;;;62.67;27.20;;;0.80;79.80;;;-0.65;75.89;97564.81;4063263;34;20155;-86
2022/01/19 09:29:30;;;;;;;53.80;27.60;;;0.80;79.70;;;-0.66;75.96;97569.34;4064931;34;20279;-86
2022/01/19 09:32:01;;;;;;;53.50;27.13;;;0.80;79.70;;;-0.67;76.01;97556.91;4086018;34;20289;-87
2022/01/19 09:34:30;;;;;;;59.78;28.30;;;0.80;79.60;;;-0.68;76.20;97552.53;4067856;34;19996;-87
2022/01/19 09:36:59;;;;;;;54.90;26.55;;;0.80;79.60;;;-0.71;75.85;97554.72;4065525;34;20020;-87
2022/01/19 09:39:28;;;;;;;53.47;25.33;;;0.70;79.60;;;-0.74;76.21;97550.50;4088336;33;20345;-85
2022/01/19 09:41:58;;;;;;;53.63;23.98;;;0.70;79.80;;;-0.75;76.21;97548.81;4066679;34;20026;-86
2022/01/19 09:44:29;;;;;;;53.67;25.90;;;0.70;79.90;;;-0.76;75.93;97541.75;4065771;34;20707;-86
2022/01/19 09:46:58;;;;;;;53.22;25.83;;;0.70;80.00;;;-0.78;76.53;97538.38;4065907;34;20103;-86
2022/01/19 09:49:27;;;;;;;48.88;25.33;;;0.70;79.90;;;-0.75;76.27;97542.59;4090892;33;20206;-86
2022/01/19 09:51:56;;;;;;;50.30;23.00;;;0.70;79.90;;;-0.74;75.96;97544.28;4068008;34;20020;-86
2022/01/19 09:54:27;;;;;;;46.92;22.27;;;0.70;79.90;;;-0.74;76.09;97539.75;4091187;34;20023;-86
2022/01/19 09:56:57;;;;;;;48.33;24.05;;;0.70;79.90;;;-0.74;76.08;97539.75;4067494;34;20372;-86
2022/01/19 09:59:26;;;;;;;47.63;23.17;;;0.70;79.90;;;-0.74;76.19;97534.38;4068369;33;20293;-86
2022/01/19 10:01:58;;;;;;;48.60;23.98;;;0.70;79.80;;;-0.74;76.53;97528.13;4070926;34;20279;-87
2022/01/19 10:04:30;;;;;;;42.63;21.88;;;0.70;79.80;;;-0.78;76.07;97522.25;4070145;34;20334;-86
2022/01/19 10:07:17;;;;;;;48.80;22.17;;;0.70;79.90;;;-0.80;75.89;97525.13;4067811;34;20345;-86
2022/01/19 10:09:56;;;;;;;44.65;21.65;;;0.70;80.00;;;-0.80;76.28;97519.75;4072935;34;20312;-86
2022/01/19 10:18:20;;;;;;;37.80;19.45;;;0.60;79.90;;;-0.81;76.29;97510.00;4057527;34;20289;-87
2022/01/19 10:21:06;;;;;;;36.80;17.92;;;0.60;79.90;;;-0.82;76.32;97505.63;4040762;34;20308;-86
2022/01/19 10:23:38;;;;;;;38.33;18.27;;;0.60;79.90;;;-0.83;76.61;97509.31;4040678;34;20019;-85
2022/01/19 10:26:09;;;;;;;38.20;19.15;;;0.60;79.90;;;-0.86;76.52;97493.50;4041349;34;20235;-86
2022/01/19 10:29:00;;;;;;;38.30;17.75;;;0.60;79.90;;;-0.88;76.38;97489.31;4089183;34;20015;-87
2022/01/19 10:31:30;;;;;;;35.17;16.20;;;0.60;80.00;;;-0.90;76.23;97485.94;4066789;34;20223;-87
2022/01/19 10:34:19;;;;;;;33.90;15.63;;;0.60;80.00;;;-0.93;76.55;97474.50;4066310;34;20012;-86
2022/01/19 10:36:50;;;;;;;31.92;17.02;;;0.60;80.20;;;-0.93;76.76;97481.75;4065388;34;20038;-86
2022/01/19 10:39:22;;;;;;;36.17;16.92;;;0.60;80.20;;;-0.95;76.78;97483.75;4066580;34;20289;-86
2022/01/19 10:42:06;;;;;;;39.03;16.65;;;0.50;80.30;;;-0.97;76.75;97481.22;4088490;34;20196;-87
2022/01/19 10:44:38;;;;;;;34.72;16.08;;;0.50;80.30;;;-1.00;76.82;97478.88;4066313;34;19999;-86
2022/01/19 10:47:07;;;;;;;32.92;16.58;;;0.50;80.30;;;-1.01;76.82;97471.81;4066496;34;20022;-87
2022/01/19 10:49:55;;;;;;;30.42;15.98;;;0.50;80.30;;;-1.02;76.67;97467.44;4066155;33;20031;-86
2022/01/19 10:52:32;;;;;;;30.77;15.15;;;0.50;80.50;;;-1.02;76.79;97464.78;4066280;34;20223;-86
2022/01/19 10:55:03;;;;;;;27.60;14.02;;;0.40;80.50;;;-0.99;76.62;97455.53;4067886;34;20026;-87
2022/01/19 10:57:34;;;;;;;30.20;14.50;;;0.50;80.50;;;-1.00;77.10;97476.19;4068774;34;20300;-87
2022/01/19 11:00:20;;;;;;;33.80;15.05;;;0.50;80.40;;;-0.99;76.79;97460.91;4091741;34;20042;-86
2022/01/19 11:02:51;;;;;;;28.65;13.98;;;0.50;80.40;;;-1.01;77.15;97450.31;4091157;34;20007;-87
2022/01/19 11:05:40;;;;;;;29.58;13.75;;;0.50;80.40;;;-1.00;76.76;97460.06;4067290;34;20023;-86
2022/01/19 11:08:09;;;;;;;28.02;13.95;;;0.50;80.40;;;-1.00;76.87;97451.16;4066045;34;20007;-87
2022/01/19 11:10:38;;;;;;;27.20;13.13;;;0.50;80.30;;;-1.01;76.60;97453.00;4068987;34;20046;-87
2022/01/19 11:13:13;;;;;;;29.80;13.95;;;0.50;80.30;;;-1.03;76.97;97449.66;4069255;34;20272;-86
2022/01/19 11:15:44;;;;;;;26.23;12.73;;;0.50;80.30;;;-1.02;76.53;97454.00;4113804;34;20027;-86
2022/01/19 11:18:12;;;;;;;26.52;12.15;;;0.50;80.30;;;-1.05;76.36;97445.44;4066272;34;20559;-86
2022/01/19 11:20:44;;;;;;;26.58;13.48;;;0.40;80.20;;;-1.09;76.81;97434.16;4089469;34;20298;-86
2022/01/19 11:23:27;;;;;;;23.20;11.75;;;0.40;80.30;;;-1.10;76.55;97436.03;4066632;34;20235;-87
2022/01/19 11:26:00;;;;;;;25.63;12.60;;;0.40;81.20;;;-1.10;76.99;97427.97;4067298;34;20304;-87
2022/01/19 11:28:35;;;;;;;23.50;12.13;;;0.40;80.40;;;-1.14;77.04;97420.41;4088828;34;20008;-87
2022/01/19 11:31:08;;;;;;;25.07;11.97;;;0.40;80.50;;;-1.13;77.23;97428.28;4084066;34;20291;-86
2022/01/19 11:33:44;;;;;;;24.80;11.27;;;0.40;81.40;;;-1.15;76.59;97424.09;4060637;34;20498;-86
2022/01/19 11:36:22;;;;;;;23.10;12.07;;;0.40;80.70;;;-1.16;76.84;97425.94;4082977;34;20222;-86
2022/01/19 11:38:57;;;;;;;22.55;11.07;;;0.30;80.80;;;-1.17;77.12;97426.09;4060527;34;20328;-86
2022/01/19 11:41:46;;;;;;;20.27;10.55;;;0.30;80.80;;;-1.18;77.35;97429.78;4059485;34;19996;-86
2022/01/19 11:44:20;;;;;;;21.20;11.20;;;0.30;80.80;;;-1.19;77.27;97417.38;4059107;34;20010;-86
2022/01/19 11:46:53;;;;;;;22.73;10.70;;;0.30;80.80;;;-1.20;76.93;97413.00;4059385;34;20050;-86
2022/01/19 11:49:55;;;;;;;21.63;9.98;;;0.30;80.80;;;-1.23;77.45;97404.25;4060154;34;20275;-86
2022/01/19 11:52:27;;;;;;;20.50;9.70;;;0.30;80.80;;;-1.24;77.16;97401.75;4060227;34;20020;-85
2022/01/19 11:55:14;;;;;;;24.67;12.15;;;0.30;80.90;;;-1.26;77.42;97385.81;4079973;34;20311;-86